Terminal Aerodrome Forecast
Issued by NWS Cleveland, OH

Home | Current Version | Previous Version | Graphics & Text | Print | Product List | Glossary On
Versions: 1 2 3 4 5 6 7 8 9 10 11 12 13 14 15 16 17
000
FTUS41 KCLE 161700
TAFERI
TAF
KERI 161728Z 1618/1718 17015G25KT P6SM OVC040
      TEMPO 1618/1620 5SM SHRA
     FM162000 18010G18KT P6SM VCSH BKN040 OVC100
      TEMPO 1620/1623 -SHRA BKN025
     FM170000 18010G20KT P6SM -SHRA OVC025
     FM170700 21010KT P6SM BKN008 OVC015
     FM171600 28006KT P6SM OVC015=

USA.gov is the U.S. government's official web portal to all federal, state and local government web resources and services.